sensor_id;sensor_type;location;lat;lon;timestamp;temperature;humidity
26107;DHT22;13866;50.748;12.630;2023-05-16T00:01:46;10.60;99.90
26107;DHT22;13866;50.748;12.630;2023-05-16T00:04:12;10.60;99.90
26107;DHT22;13866;50.748;12.630;2023-05-16T00:06:37;10.60;99.90
26107;DHT22;13866;50.748;12.630;2023-05-16T00:09:03;10.50;99.90
26107;DHT22;13866;50.748;12.630;2023-05-16T00:11:28;10.60;99.90
26107;DHT22;13866;50.748;12.630;2023-05-16T00:13:54;10.50;99.90
26107;DHT22;13866;50.748;12.630;2023-05-16T00:16:19;10.50;99.90
26107;DHT22;13866;50.748;12.630;2023-05-16T00:18:46;10.40;99.90
26107;DHT22;13866;50.748;12.630;2023-05-16T00:21:12;10.30;99.90
26107;DHT22;13866;50.748;12.630;2023-05-16T00:23:38;10.30;99.90
26107;DHT22;13866;50.748;12.630;2023-05-16T00:26:03;10.10;99.90
26107;DHT22;13866;50.748;12.630;2023-05-16T00:28:29;10.00;99.90
26107;DHT22;13866;50.748;12.630;2023-05-16T00:30:54;10.00;99.90
26107;DHT22;13866;50.748;12.630;2023-05-16T00:33:20;10.00;99.90
26107;DHT22;13866;50.748;12.630;2023-05-16T00:35:45;10.00;99.90
26107;DHT22;13866;50.748;12.630;2023-05-16T00:38:11;10.10;99.90
26107;DHT22;13866;50.748;12.630;2023-05-16T00:40:37;10.10;99.90
26107;DHT22;13866;50.748;12.630;2023-05-16T00:43:03;10.00;99.90
26107;DHT22;13866;50.748;12.630;2023-05-16T00:45:28;10.00;99.90
26107;DHT22;13866;50.748;12.630;2023-05-16T00:47:54;9.80;99.90
26107;DHT22;13866;50.748;12.630;2023-05-16T00:50:19;9.80;99.90
26107;DHT22;13866;50.748;12.630;2023-05-16T00:52:45;9.80;99.90
26107;DHT22;13866;50.748;12.630;2023-05-16T00:55:11;9.80;99.90
26107;DHT22;13866;50.748;12.630;2023-05-16T00:57:37;9.80;99.90
26107;DHT22;13866;50.748;12.630;2023-05-16T01:00:07;9.80;99.90
26107;DHT22;13866;50.748;12.630;2023-05-16T01:02:36;9.70;99.90
26107;DHT22;13866;50.748;12.630;2023-05-16T01:05:02;9.70;99.90
26107;DHT22;13866;50.748;12.630;2023-05-16T01:07:30;9.70;99.90
26107;DHT22;13866;50.748;12.630;2023-05-16T01:09:56;9.70;99.90
26107;DHT22;13866;50.748;12.630;2023-05-16T01:12:31;9.60;99.90
26107;DHT22;13866;50.748;12.630;2023-05-16T01:15:08;9.60;99.90
26107;DHT22;13866;50.748;12.630;2023-05-16T01:20:27;9.50;99.90
26107;DHT22;13866;50.748;12.630;2023-05-16T01:25:56;9.50;99.90
26107;DHT22;13866;50.748;12.630;2023-05-16T01:28:23;9.50;99.90
26107;DHT22;13866;50.748;12.630;2023-05-16T01:30:50;9.50;99.90
26107;DHT22;13866;50.748;12.630;2023-05-16T01:33:15;9.40;99.90
26107;DHT22;13866;50.748;12.630;2023-05-16T01:38:35;9.40;99.90
26107;DHT22;13866;50.748;12.630;2023-05-16T01:41:21;9.50;99.90
26107;DHT22;13866;50.748;12.630;2023-05-16T01:43:50;9.50;99.90
26107;DHT22;13866;50.748;12.630;2023-05-16T01:46:33;9.50;99.90
26107;DHT22;13866;50.748;12.630;2023-05-16T01:49:22;9.60;99.90
26107;DHT22;13866;50.748;12.630;2023-05-16T01:51:53;9.70;99.90
26107;DHT22;13866;50.748;12.630;2023-05-16T01:54:23;9.80;99.90
26107;DHT22;13866;50.748;12.630;2023-05-16T01:56:53;9.80;99.90
26107;DHT22;13866;50.748;12.630;2023-05-16T01:59:20;9.80;99.90
26107;DHT22;13866;50.748;12.630;2023-05-16T02:01:46;9.80;99.90
26107;DHT22;13866;50.748;12.630;2023-05-16T02:04:12;9.80;99.90
26107;DHT22;13866;50.748;12.630;2023-05-16T02:06:39;9.90;99.90
26107;DHT22;13866;50.748;12.630;2023-05-16T02:09:05;9.90;99.90
26107;DHT22;13866;50.748;12.630;2023-05-16T02:11:30;9.80;99.90
26107;DHT22;13866;50.748;12.630;2023-05-16T02:13:56;9.80;99.90
26107;DHT22;13866;50.748;12.630;2023-05-16T02:16:21;9.80;99.90
26107;DHT22;13866;50.748;12.630;2023-05-16T02:18:47;9.80;99.90
26107;DHT22;13866;50.748;12.630;2023-05-16T02:21:12;9.80;99.90
26107;DHT22;13866;50.748;12.630;2023-05-16T02:23:38;9.80;99.90
26107;DHT22;13866;50.748;12.630;2023-05-16T02:26:03;9.90;99.90
26107;DHT22;13866;50.748;12.630;2023-05-16T02:28:29;9.90;99.90
26107;DHT22;13866;50.748;12.630;2023-05-16T02:30:58;9.90;99.90
26107;DHT22;13866;50.748;12.630;2023-05-16T02:33:28;9.90;99.90
26107;DHT22;13866;50.748;12.630;2023-05-16T02:35:53;9.80;99.90
26107;DHT22;13866;50.748;12.630;2023-05-16T02:38:19;9.80;99.90
26107;DHT22;13866;50.748;12.630;2023-05-16T02:40:48;9.80;99.90
26107;DHT22;13866;50.748;12.630;2023-05-16T02:43:14;9.70;99.90
26107;DHT22;13866;50.748;12.630;2023-05-16T02:45:39;9.70;99.90
26107;DHT22;13866;50.748;12.630;2023-05-16T02:48:05;9.60;99.90
26107;DHT22;13866;50.748;12.630;2023-05-16T02:50:32;9.60;99.90
26107;DHT22;13866;50.748;12.630;2023-05-16T02:52:57;9.50;99.90
26107;DHT22;13866;50.748;12.630;2023-05-16T02:55:24;9.60;99.90
26107;DHT22;13866;50.748;12.630;2023-05-16T02:57:50;9.50;99.90
26107;DHT22;13866;50.748;12.630;2023-05-16T03:00:16;9.40;99.90
26107;DHT22;13866;50.748;12.630;2023-05-16T03:02:42;9.30;99.90
26107;DHT22;13866;50.748;12.630;2023-05-16T03:05:08;9.20;99.90
26107;DHT22;13866;50.748;12.630;2023-05-16T03:07:34;9.10;99.90
26107;DHT22;13866;50.748;12.630;2023-05-16T03:09:59;9.00;99.90
26107;DHT22;13866;50.748;12.630;2023-05-16T03:12:25;8.90;99.90
26107;DHT22;13866;50.748;12.630;2023-05-16T03:14:50;8.90;99.90
26107;DHT22;13866;50.748;12.630;2023-05-16T03:17:16;9.00;99.90
26107;DHT22;13866;50.748;12.630;2023-05-16T03:19:41;8.90;99.90
26107;DHT22;13866;50.748;12.630;2023-05-16T03:22:07;8.90;99.90
26107;DHT22;13866;50.748;12.630;2023-05-16T03:24:32;8.90;99.90
26107;DHT22;13866;50.748;12.630;2023-05-16T03:26:58;9.00;99.90
26107;DHT22;13866;50.748;12.630;2023-05-16T03:29:24;9.00;99.90
26107;DHT22;13866;50.748;12.630;2023-05-16T03:31:51;9.00;99.90
26107;DHT22;13866;50.748;12.630;2023-05-16T03:34:16;8.90;99.90
26107;DHT22;13866;50.748;12.630;2023-05-16T03:36:42;8.70;99.90
26107;DHT22;13866;50.748;12.630;2023-05-16T03:39:07;8.70;99.90
26107;DHT22;13866;50.748;12.630;2023-05-16T03:41:33;8.80;99.90
26107;DHT22;13866;50.748;12.630;2023-05-16T03:43:59;8.70;99.90
26107;DHT22;13866;50.748;12.630;2023-05-16T03:46:24;8.80;99.90
26107;DHT22;13866;50.748;12.630;2023-05-16T03:48:50;8.80;99.90
26107;DHT22;13866;50.748;12.630;2023-05-16T03:51:16;8.80;99.90
26107;DHT22;13866;50.748;12.630;2023-05-16T03:53:41;8.90;99.90
26107;DHT22;13866;50.748;12.630;2023-05-16T03:56:07;9.00;99.90
26107;DHT22;13866;50.748;12.630;2023-05-16T03:58:32;8.90;99.90
26107;DHT22;13866;50.748;12.630;2023-05-16T04:00:58;8.90;99.90
26107;DHT22;13866;50.748;12.630;2023-05-16T04:03:23;8.90;99.90
26107;DHT22;13866;50.748;12.630;2023-05-16T04:05:53;8.80;99.90
26107;DHT22;13866;50.748;12.630;2023-05-16T04:08:19;8.70;99.90
26107;DHT22;13866;50.748;12.630;2023-05-16T04:10:45;8.70;99.90
26107;DHT22;13866;50.748;12.630;2023-05-16T04:13:10;8.80;99.90
26107;DHT22;13866;50.748;12.630;2023-05-16T04:15:36;8.80;99.90
26107;DHT22;13866;50.748;12.630;2023-05-16T04:18:01;8.80;99.90
26107;DHT22;13866;50.748;12.630;2023-05-16T04:20:27;8.90;99.90
26107;DHT22;13866;50.748;12.630;2023-05-16T04:22:52;9.00;99.90
26107;DHT22;13866;50.748;12.630;2023-05-16T04:25:18;9.00;99.90
26107;DHT22;13866;50.748;12.630;2023-05-16T04:27:43;9.10;99.90
26107;DHT22;13866;50.748;12.630;2023-05-16T04:30:10;9.10;99.90
26107;DHT22;13866;50.748;12.630;2023-05-16T04:32:36;9.20;99.90
26107;DHT22;13866;50.748;12.630;2023-05-16T04:35:02;9.20;99.90
26107;DHT22;13866;50.748;12.630;2023-05-16T04:37:27;9.30;99.90
26107;DHT22;13866;50.748;12.630;2023-05-16T04:39:53;9.30;99.90
26107;DHT22;13866;50.748;12.630;2023-05-16T04:42:19;9.40;99.90
26107;DHT22;13866;50.748;12.630;2023-05-16T04:44:44;9.40;99.90
26107;DHT22;13866;50.748;12.630;2023-05-16T04:47:12;9.40;99.90
26107;DHT22;13866;50.748;12.630;2023-05-16T04:49:37;9.40;99.90
26107;DHT22;13866;50.748;12.630;2023-05-16T04:52:04;9.40;99.90
26107;DHT22;13866;50.748;12.630;2023-05-16T04:54:30;9.50;99.90
26107;DHT22;13866;50.748;12.630;2023-05-16T04:56:55;9.50;99.90
26107;DHT22;13866;50.748;12.630;2023-05-16T04:59:21;9.60;99.90
26107;DHT22;13866;50.748;12.630;2023-05-16T05:01:47;9.70;99.90
26107;DHT22;13866;50.748;12.630;2023-05-16T05:04:12;9.70;99.90
26107;DHT22;13866;50.748;12.630;2023-05-16T05:06:38;9.70;99.90
26107;DHT22;13866;50.748;12.630;2023-05-16T05:09:04;9.70;99.90
26107;DHT22;13866;50.748;12.630;2023-05-16T05:11:30;9.70;99.90
26107;DHT22;13866;50.748;12.630;2023-05-16T05:13:56;9.70;99.90
26107;DHT22;13866;50.748;12.630;2023-05-16T05:16:21;9.70;99.90
26107;DHT22;13866;50.748;12.630;2023-05-16T05:18:47;9.70;99.90
26107;DHT22;13866;50.748;12.630;2023-05-16T05:21:12;9.70;99.90
26107;DHT22;13866;50.748;12.630;2023-05-16T05:23:38;9.70;99.90
26107;DHT22;13866;50.748;12.630;2023-05-16T05:26:04;9.70;99.90
26107;DHT22;13866;50.748;12.630;2023-05-16T05:28:29;9.60;99.90
26107;DHT22;13866;50.748;12.630;2023-05-16T05:30:55;9.50;99.90
26107;DHT22;13866;50.748;12.630;2023-05-16T05:33:25;9.50;99.90
26107;DHT22;13866;50.748;12.630;2023-05-16T05:35:52;9.50;99.90
26107;DHT22;13866;50.748;12.630;2023-05-16T05:38:18;9.40;99.90
26107;DHT22;13866;50.748;12.630;2023-05-16T05:40:44;9.30;99.90
26107;DHT22;13866;50.748;12.630;2023-05-16T05:43:09;9.30;99.90
26107;DHT22;13866;50.748;12.630;2023-05-16T05:45:35;9.40;99.90
26107;DHT22;13866;50.748;12.630;2023-05-16T05:48:01;9.50;99.90
26107;DHT22;13866;50.748;12.630;2023-05-16T05:50:27;9.40;99.90
26107;DHT22;13866;50.748;12.630;2023-05-16T05:52:53;9.40;99.90
26107;DHT22;13866;50.748;12.630;2023-05-16T05:55:19;9.50;99.90
26107;DHT22;13866;50.748;12.630;2023-05-16T05:57:44;9.70;99.90
26107;DHT22;13866;50.748;12.630;2023-05-16T06:00:10;9.70;99.90
26107;DHT22;13866;50.748;12.630;2023-05-16T06:02:36;9.70;99.90
26107;DHT22;13866;50.748;12.630;2023-05-16T06:05:02;9.70;99.90
26107;DHT22;13866;50.748;12.630;2023-05-16T06:07:27;9.60;99.90
26107;DHT22;13866;50.748;12.630;2023-05-16T06:09:53;9.50;99.90
26107;DHT22;13866;50.748;12.630;2023-05-16T06:12:18;9.20;99.90
26107;DHT22;13866;50.748;12.630;2023-05-16T06:14:44;9.20;99.90
26107;DHT22;13866;50.748;12.630;2023-05-16T06:17:09;9.10;99.90
26107;DHT22;13866;50.748;12.630;2023-05-16T06:19:35;9.10;99.90
26107;DHT22;13866;50.748;12.630;2023-05-16T06:22:00;9.10;99.90
26107;DHT22;13866;50.748;12.630;2023-05-16T06:24:25;9.00;99.90
26107;DHT22;13866;50.748;12.630;2023-05-16T06:26:54;9.00;99.90
26107;DHT22;13866;50.748;12.630;2023-05-16T06:29:19;9.00;99.90
26107;DHT22;13866;50.748;12.630;2023-05-16T06:31:45;8.90;99.90
26107;DHT22;13866;50.748;12.630;2023-05-16T06:34:11;8.90;99.90
26107;DHT22;13866;50.748;12.630;2023-05-16T06:36:37;9.00;99.90
26107;DHT22;13866;50.748;12.630;2023-05-16T06:39:02;8.90;99.90
26107;DHT22;13866;50.748;12.630;2023-05-16T06:41:29;8.80;99.90
26107;DHT22;13866;50.748;12.630;2023-05-16T06:43:55;8.90;99.90
26107;DHT22;13866;50.748;12.630;2023-05-16T06:46:21;8.80;99.90
26107;DHT22;13866;50.748;12.630;2023-05-16T06:48:46;8.80;99.90
26107;DHT22;13866;50.748;12.630;2023-05-16T06:51:12;8.80;99.90
26107;DHT22;13866;50.748;12.630;2023-05-16T06:53:37;8.90;99.90
26107;DHT22;13866;50.748;12.630;2023-05-16T06:56:03;8.90;99.90
26107;DHT22;13866;50.748;12.630;2023-05-16T06:58:28;8.90;99.90
26107;DHT22;13866;50.748;12.630;2023-05-16T07:00:54;8.90;99.90
26107;DHT22;13866;50.748;12.630;2023-05-16T07:03:19;9.00;99.90
26107;DHT22;13866;50.748;12.630;2023-05-16T07:05:45;9.00;99.90
26107;DHT22;13866;50.748;12.630;2023-05-16T07:08:11;9.00;99.90
26107;DHT22;13866;50.748;12.630;2023-05-16T07:10:39;8.90;99.90
26107;DHT22;13866;50.748;12.630;2023-05-16T07:13:06;8.80;99.90
26107;DHT22;13866;50.748;12.630;2023-05-16T07:15:31;8.80;99.90
26107;DHT22;13866;50.748;12.630;2023-05-16T07:17:57;8.80;99.90
26107;DHT22;13866;50.748;12.630;2023-05-16T07:20:22;8.90;99.90
26107;DHT22;13866;50.748;12.630;2023-05-16T07:22:48;8.90;99.90
26107;DHT22;13866;50.748;12.630;2023-05-16T07:25:13;8.90;99.90
26107;DHT22;13866;50.748;12.630;2023-05-16T07:27:55;9.00;99.90
26107;DHT22;13866;50.748;12.630;2023-05-16T07:30:21;9.10;99.90
26107;DHT22;13866;50.748;12.630;2023-05-16T07:32:46;9.10;99.90
26107;DHT22;13866;50.748;12.630;2023-05-16T07:35:12;9.10;99.90
26107;DHT22;13866;50.748;12.630;2023-05-16T07:37:37;9.10;99.90
26107;DHT22;13866;50.748;12.630;2023-05-16T07:40:06;9.10;99.90
26107;DHT22;13866;50.748;12.630;2023-05-16T07:42:32;9.10;99.90
26107;DHT22;13866;50.748;12.630;2023-05-16T07:44:57;9.10;99.90
26107;DHT22;13866;50.748;12.630;2023-05-16T07:47:23;9.20;99.90
26107;DHT22;13866;50.748;12.630;2023-05-16T07:49:48;9.20;99.90
26107;DHT22;13866;50.748;12.630;2023-05-16T07:52:14;9.30;99.90
26107;DHT22;13866;50.748;12.630;2023-05-16T07:54:39;9.30;99.90
26107;DHT22;13866;50.748;12.630;2023-05-16T07:57:05;9.10;99.90
26107;DHT22;13866;50.748;12.630;2023-05-16T07:59:31;9.10;99.90
26107;DHT22;13866;50.748;12.630;2023-05-16T08:01:57;9.10;99.90
26107;DHT22;13866;50.748;12.630;2023-05-16T08:04:22;9.20;99.90
26107;DHT22;13866;50.748;12.630;2023-05-16T08:06:48;9.20;99.90
26107;DHT22;13866;50.748;12.630;2023-05-16T08:09:14;9.30;99.90
26107;DHT22;13866;50.748;12.630;2023-05-16T08:11:39;9.40;99.90
26107;DHT22;13866;50.748;12.630;2023-05-16T08:14:05;9.30;99.90
26107;DHT22;13866;50.748;12.630;2023-05-16T08:16:30;9.40;99.90
26107;DHT22;13866;50.748;12.630;2023-05-16T08:18:56;9.30;99.90
26107;DHT22;13866;50.748;12.630;2023-05-16T08:21:22;9.20;99.90
26107;DHT22;13866;50.748;12.630;2023-05-16T08:26:35;9.10;99.90
26107;DHT22;13866;50.748;12.630;2023-05-16T08:29:16;9.10;99.90
26107;DHT22;13866;50.748;12.630;2023-05-16T08:31:42;9.10;99.90
26107;DHT22;13866;50.748;12.630;2023-05-16T08:34:08;9.20;99.90
26107;DHT22;13866;50.748;12.630;2023-05-16T08:36:37;9.20;99.90
26107;DHT22;13866;50.748;12.630;2023-05-16T08:39:03;9.30;99.90
26107;DHT22;13866;50.748;12.630;2023-05-16T08:41:29;9.30;99.90
26107;DHT22;13866;50.748;12.630;2023-05-16T08:43:55;9.30;99.90
26107;DHT22;13866;50.748;12.630;2023-05-16T08:46:22;9.30;99.90
26107;DHT22;13866;50.748;12.630;2023-05-16T08:48:51;9.30;99.90
26107;DHT22;13866;50.748;12.630;2023-05-16T08:51:18;9.40;99.90
26107;DHT22;13866;50.748;12.630;2023-05-16T08:53:51;9.40;99.90
26107;DHT22;13866;50.748;12.630;2023-05-16T08:56:18;9.50;99.90
26107;DHT22;13866;50.748;12.630;2023-05-16T08:58:46;9.50;99.90
26107;DHT22;13866;50.748;12.630;2023-05-16T09:01:13;9.60;99.90
26107;DHT22;13866;50.748;12.630;2023-05-16T09:03:39;9.70;99.90
26107;DHT22;13866;50.748;12.630;2023-05-16T09:06:05;9.80;99.90
26107;DHT22;13866;50.748;12.630;2023-05-16T09:08:31;10.00;99.90
26107;DHT22;13866;50.748;12.630;2023-05-16T09:10:56;10.10;99.90
26107;DHT22;13866;50.748;12.630;2023-05-16T09:13:23;10.20;99.90
26107;DHT22;13866;50.748;12.630;2023-05-16T09:16:19;10.10;99.90
26107;DHT22;13866;50.748;12.630;2023-05-16T09:18:54;10.00;99.90
26107;DHT22;13866;50.748;12.630;2023-05-16T09:21:22;10.00;99.90
26107;DHT22;13866;50.748;12.630;2023-05-16T09:23:48;10.00;99.90
26107;DHT22;13866;50.748;12.630;2023-05-16T09:26:17;10.00;99.90
26107;DHT22;13866;50.748;12.630;2023-05-16T09:28:43;10.00;99.90
26107;DHT22;13866;50.748;12.630;2023-05-16T09:31:25;10.00;99.90
26107;DHT22;13866;50.748;12.630;2023-05-16T09:33:57;9.90;99.90
26107;DHT22;13866;50.748;12.630;2023-05-16T09:36:23;9.90;99.90
26107;DHT22;13866;50.748;12.630;2023-05-16T09:38:52;9.90;99.90
26107;DHT22;13866;50.748;12.630;2023-05-16T09:41:20;10.00;99.90
26107;DHT22;13866;50.748;12.630;2023-05-16T09:43:46;10.00;99.90
26107;DHT22;13866;50.748;12.630;2023-05-16T09:46:13;10.10;99.90
26107;DHT22;13866;50.748;12.630;2023-05-16T09:48:57;10.10;99.90
26107;DHT22;13866;50.748;12.630;2023-05-16T09:51:22;10.20;99.90
26107;DHT22;13866;50.748;12.630;2023-05-16T09:53:48;10.20;99.90
26107;DHT22;13866;50.748;12.630;2023-05-16T09:56:15;10.40;99.90
26107;DHT22;13866;50.748;12.630;2023-05-16T09:58:42;10.40;99.90
26107;DHT22;13866;50.748;12.630;2023-05-16T10:01:09;10.40;99.90
26107;DHT22;13866;50.748;12.630;2023-05-16T10:03:36;10.40;99.90
26107;DHT22;13866;50.748;12.630;2023-05-16T10:06:03;10.40;99.90
26107;DHT22;13866;50.748;12.630;2023-05-16T10:08:31;10.40;99.90
26107;DHT22;13866;50.748;12.630;2023-05-16T10:11:01;10.40;99.90
26107;DHT22;13866;50.748;12.630;2023-05-16T10:13:32;10.40;99.90
26107;DHT22;13866;50.748;12.630;2023-05-16T10:16:10;10.40;99.90
26107;DHT22;13866;50.748;12.630;2023-05-16T10:18:37;10.30;99.90
26107;DHT22;13866;50.748;12.630;2023-05-16T10:21:13;10.50;99.90
26107;DHT22;13866;50.748;12.630;2023-05-16T10:23:43;10.60;99.90
26107;DHT22;13866;50.748;12.630;2023-05-16T10:26:11;10.60;99.90
26107;DHT22;13866;50.748;12.630;2023-05-16T10:28:39;10.60;99.90
26107;DHT22;13866;50.748;12.630;2023-05-16T10:31:06;10.70;99.90
26107;DHT22;13866;50.748;12.630;2023-05-16T10:33:32;10.70;99.90
26107;DHT22;13866;50.748;12.630;2023-05-16T10:35:58;10.80;99.90
26107;DHT22;13866;50.748;12.630;2023-05-16T10:38:24;11.00;99.90
26107;DHT22;13866;50.748;12.630;2023-05-16T10:40:51;11.10;99.90
26107;DHT22;13866;50.748;12.630;2023-05-16T10:43:32;11.20;99.90
26107;DHT22;13866;50.748;12.630;2023-05-16T10:46:06;11.30;99.90
26107;DHT22;13866;50.748;12.630;2023-05-16T10:48:34;11.40;99.90
26107;DHT22;13866;50.748;12.630;2023-05-16T10:51:01;11.50;99.90
26107;DHT22;13866;50.748;12.630;2023-05-16T10:53:32;11.80;99.90
26107;DHT22;13866;50.748;12.630;2023-05-16T11:01:22;11.90;99.90
26107;DHT22;13866;50.748;12.630;2023-05-16T11:04:16;11.80;99.90
26107;DHT22;13866;50.748;12.630;2023-05-16T11:10:17;11.70;99.90
26107;DHT22;13866;50.748;12.630;2023-05-16T11:13:03;11.60;99.90
26107;DHT22;13866;50.748;12.630;2023-05-16T11:19:33;11.50;99.90
26107;DHT22;13866;50.748;12.630;2023-05-16T11:25:04;11.20;99.90
26107;DHT22;13866;50.748;12.630;2023-05-16T11:27:31;11.10;99.90
26107;DHT22;13866;50.748;12.630;2023-05-16T11:30:00;10.90;99.90
26107;DHT22;13866;50.748;12.630;2023-05-16T11:32:26;10.70;99.90
26107;DHT22;13866;50.748;12.630;2023-05-16T11:34:51;10.70;99.90
26107;DHT22;13866;50.748;12.630;2023-05-16T11:37:18;10.70;99.90
26107;DHT22;13866;50.748;12.630;2023-05-16T11:39:44;10.70;99.90
26107;DHT22;13866;50.748;12.630;2023-05-16T11:42:10;10.70;99.90
26107;DHT22;13866;50.748;12.630;2023-05-16T11:44:42;10.80;99.90
26107;DHT22;13866;50.748;12.630;2023-05-16T11:47:08;10.90;99.90
26107;DHT22;13866;50.748;12.630;2023-05-16T11:49:49;10.90;99.90
26107;DHT22;13866;50.748;12.630;2023-05-16T11:52:15;10.90;99.90
26107;DHT22;13866;50.748;12.630;2023-05-16T11:54:40;11.00;99.90
26107;DHT22;13866;50.748;12.630;2023-05-16T11:57:07;11.10;99.90
26107;DHT22;13866;50.748;12.630;2023-05-16T11:59:33;11.20;99.90
26107;DHT22;13866;50.748;12.630;2023-05-16T12:02:02;11.30;99.90
26107;DHT22;13866;50.748;12.630;2023-05-16T12:04:28;11.30;99.90
26107;DHT22;13866;50.748;12.630;2023-05-16T12:06:58;11.30;99.90
26107;DHT22;13866;50.748;12.630;2023-05-16T12:09:24;11.40;99.90
26107;DHT22;13866;50.748;12.630;2023-05-16T12:11:51;11.40;99.90
26107;DHT22;13866;50.748;12.630;2023-05-16T12:14:17;11.40;99.90
26107;DHT22;13866;50.748;12.630;2023-05-16T12:16:43;11.40;99.90
26107;DHT22;13866;50.748;12.630;2023-05-16T12:19:10;11.40;99.90
26107;DHT22;13866;50.748;12.630;2023-05-16T12:21:37;11.20;99.90
26107;DHT22;13866;50.748;12.630;2023-05-16T12:24:22;11.10;99.90
26107;DHT22;13866;50.748;12.630;2023-05-16T12:27:02;11.20;99.90
26107;DHT22;13866;50.748;12.630;2023-05-16T12:29:30;11.30;99.90
26107;DHT22;13866;50.748;12.630;2023-05-16T12:32:17;11.50;99.90
26107;DHT22;13866;50.748;12.630;2023-05-16T12:34:48;11.60;99.90
26107;DHT22;13866;50.748;12.630;2023-05-16T12:37:14;11.60;99.90
26107;DHT22;13866;50.748;12.630;2023-05-16T12:39:40;11.60;99.90
26107;DHT22;13866;50.748;12.630;2023-05-16T12:42:06;11.60;99.90
26107;DHT22;13866;50.748;12.630;2023-05-16T12:44:34;11.50;99.90
26107;DHT22;13866;50.748;12.630;2023-05-16T12:47:01;11.50;99.90
26107;DHT22;13866;50.748;12.630;2023-05-16T12:49:48;11.40;99.90
26107;DHT22;13866;50.748;12.630;2023-05-16T12:52:19;11.10;99.90
26107;DHT22;13866;50.748;12.630;2023-05-16T12:54:45;11.00;99.90
26107;DHT22;13866;50.748;12.630;2023-05-16T12:57:11;11.00;99.90
26107;DHT22;13866;50.748;12.630;2023-05-16T12:59:36;10.90;99.90
26107;DHT22;13866;50.748;12.630;2023-05-16T13:02:02;10.90;99.90
26107;DHT22;13866;50.748;12.630;2023-05-16T13:04:28;10.90;99.90
26107;DHT22;13866;50.748;12.630;2023-05-16T13:06:57;10.80;99.90
26107;DHT22;13866;50.748;12.630;2023-05-16T13:09:22;10.80;99.90
26107;DHT22;13866;50.748;12.630;2023-05-16T13:11:48;10.80;99.90
26107;DHT22;13866;50.748;12.630;2023-05-16T13:14:15;10.90;99.90
26107;DHT22;13866;50.748;12.630;2023-05-16T13:16:42;11.00;99.90
26107;DHT22;13866;50.748;12.630;2023-05-16T13:19:08;11.00;99.90
26107;DHT22;13866;50.748;12.630;2023-05-16T13:21:33;11.00;99.90
26107;DHT22;13866;50.748;12.630;2023-05-16T13:24:14;11.00;99.90
26107;DHT22;13866;50.748;12.630;2023-05-16T13:26:39;10.80;99.90
26107;DHT22;13866;50.748;12.630;2023-05-16T13:29:05;10.80;99.90
26107;DHT22;13866;50.748;12.630;2023-05-16T13:31:42;10.70;99.90
26107;DHT22;13866;50.748;12.630;2023-05-16T13:34:12;10.60;99.90
26107;DHT22;13866;50.748;12.630;2023-05-16T13:36:37;10.60;99.90
26107;DHT22;13866;50.748;12.630;2023-05-16T13:39:02;10.60;99.90
26107;DHT22;13866;50.748;12.630;2023-05-16T13:41:28;10.60;99.90
26107;DHT22;13866;50.748;12.630;2023-05-16T13:43:54;10.60;99.90
26107;DHT22;13866;50.748;12.630;2023-05-16T13:46:19;10.60;99.90
26107;DHT22;13866;50.748;12.630;2023-05-16T13:48:45;10.70;99.90
26107;DHT22;13866;50.748;12.630;2023-05-16T13:51:10;10.70;99.90
26107;DHT22;13866;50.748;12.630;2023-05-16T13:53:48;10.60;99.90
26107;DHT22;13866;50.748;12.630;2023-05-16T13:56:14;10.60;99.90
26107;DHT22;13866;50.748;12.630;2023-05-16T13:58:39;10.60;99.90
26107;DHT22;13866;50.748;12.630;2023-05-16T14:01:05;10.70;99.90
26107;DHT22;13866;50.748;12.630;2023-05-16T14:03:31;10.70;99.90
26107;DHT22;13866;50.748;12.630;2023-05-16T14:05:57;10.80;99.90
26107;DHT22;13866;50.748;12.630;2023-05-16T14:08:22;10.80;99.90
26107;DHT22;13866;50.748;12.630;2023-05-16T14:10:48;10.80;99.90
26107;DHT22;13866;50.748;12.630;2023-05-16T14:13:13;10.80;99.90
26107;DHT22;13866;50.748;12.630;2023-05-16T14:15:39;10.70;99.90
26107;DHT22;13866;50.748;12.630;2023-05-16T14:18:04;10.70;99.90
26107;DHT22;13866;50.748;12.630;2023-05-16T14:20:30;10.70;99.90
26107;DHT22;13866;50.748;12.630;2023-05-16T14:23:02;10.70;99.90
26107;DHT22;13866;50.748;12.630;2023-05-16T14:25:28;10.70;99.90
26107;DHT22;13866;50.748;12.630;2023-05-16T14:27:54;10.70;99.90
26107;DHT22;13866;50.748;12.630;2023-05-16T14:30:19;10.70;99.90
26107;DHT22;13866;50.748;12.630;2023-05-16T14:35:31;10.70;99.90
26107;DHT22;13866;50.748;12.630;2023-05-16T14:37:56;10.70;99.90
26107;DHT22;13866;50.748;12.630;2023-05-16T14:40:22;10.70;99.90
26107;DHT22;13866;50.748;12.630;2023-05-16T14:42:47;10.70;99.90
26107;DHT22;13866;50.748;12.630;2023-05-16T14:45:31;10.70;99.90
26107;DHT22;13866;50.748;12.630;2023-05-16T14:47:57;10.70;99.90
26107;DHT22;13866;50.748;12.630;2023-05-16T14:50:23;10.80;99.90
26107;DHT22;13866;50.748;12.630;2023-05-16T14:52:49;10.90;99.90
26107;DHT22;13866;50.748;12.630;2023-05-16T14:55:18;10.90;99.90
26107;DHT22;13866;50.748;12.630;2023-05-16T14:57:43;10.90;99.90
26107;DHT22;13866;50.748;12.630;2023-05-16T15:00:10;10.90;99.90
26107;DHT22;13866;50.748;12.630;2023-05-16T15:02:35;10.90;99.90
26107;DHT22;13866;50.748;12.630;2023-05-16T15:05:01;11.10;99.90
26107;DHT22;13866;50.748;12.630;2023-05-16T15:07:26;11.10;99.90
26107;DHT22;13866;50.748;12.630;2023-05-16T15:09:52;11.20;99.90
26107;DHT22;13866;50.748;12.630;2023-05-16T15:12:17;11.30;99.90
26107;DHT22;13866;50.748;12.630;2023-05-16T15:14:43;11.30;99.90
26107;DHT22;13866;50.748;12.630;2023-05-16T15:17:08;11.40;99.90
26107;DHT22;13866;50.748;12.630;2023-05-16T15:19:34;11.30;99.90
26107;DHT22;13866;50.748;12.630;2023-05-16T15:22:12;11.30;99.90
26107;DHT22;13866;50.748;12.630;2023-05-16T15:24:37;11.40;99.90
26107;DHT22;13866;50.748;12.630;2023-05-16T15:27:03;11.60;99.90
26107;DHT22;13866;50.748;12.630;2023-05-16T15:29:29;11.80;99.90
26107;DHT22;13866;50.748;12.630;2023-05-16T15:31:56;11.80;99.90
26107;DHT22;13866;50.748;12.630;2023-05-16T15:34:22;11.90;99.90
26107;DHT22;13866;50.748;12.630;2023-05-16T15:36:47;11.90;99.90
26107;DHT22;13866;50.748;12.630;2023-05-16T15:39:13;11.90;99.90
26107;DHT22;13866;50.748;12.630;2023-05-16T15:41:38;11.90;99.90
26107;DHT22;13866;50.748;12.630;2023-05-16T15:44:04;11.90;99.90
26107;DHT22;13866;50.748;12.630;2023-05-16T15:46:29;12.00;99.90
26107;DHT22;13866;50.748;12.630;2023-05-16T15:48:57;12.10;99.90
26107;DHT22;13866;50.748;12.630;2023-05-16T15:51:22;12.10;99.90
26107;DHT22;13866;50.748;12.630;2023-05-16T15:53:48;12.20;99.90
26107;DHT22;13866;50.748;12.630;2023-05-16T15:56:13;12.30;99.90